Time;durP1;ratioP1;P1;durP2;ratioP2;P2;SDS_P1;SDS_P2;PMS_P1;PMS_P2;Temp;Humidity;BMP_temperature;BMP_pressure;BME280_temperature;BME280_humidity;BME280_pressure;Samples;Min_cycle;Max_cycle;Signal;HPM_P1;HPM_P2
2022/10/29 00:02:18;;;;;;;19.35;11.05;;;;;;;13.86;100.00;101959.47;5250184;28;20115;-65
2022/10/29 00:04:50;;;;;;;16.90;10.52;;;;;;;13.82;100.00;101946.41;5248711;28;20025;-65
2022/10/29 00:07:21;;;;;;;15.48;10.88;;;;;;;13.80;100.00;101946.53;5248496;28;20131;-65
2022/10/29 00:09:52;;;;;;;22.80;12.07;;;;;;;13.93;100.00;101947.34;5249658;28;20140;-65
2022/10/29 00:12:23;;;;;;;17.50;10.88;;;;;;;13.86;100.00;101947.91;5253646;28;20059;-66
2022/10/29 00:14:55;;;;;;;16.02;10.68;;;;;;;13.86;100.00;101939.84;5253671;28;20543;-66
2022/10/29 00:17:26;;;;;;;16.08;10.48;;;;;;;13.80;100.00;101935.78;5240581;28;20486;-65
2022/10/29 00:19:57;;;;;;;18.77;10.18;;;;;;;13.77;100.00;101940.53;5244976;28;20385;-65
2022/10/29 00:22:28;;;;;;;16.00;10.43;;;;;;;13.72;100.00;101939.03;5248064;28;20390;-66
2022/10/29 00:25:00;;;;;;;17.27;10.00;;;;;;;13.74;100.00;101946.97;5246436;28;20728;-66
2022/10/29 00:27:31;;;;;;;19.65;10.70;;;;;;;13.65;100.00;101944.94;5249473;28;20804;-65
2022/10/29 00:30:03;;;;;;;17.33;10.35;;;;;;;13.57;100.00;101948.19;5243976;28;20111;-65
2022/10/29 00:32:34;;;;;;;17.02;9.98;;;;;;;13.57;100.00;101947.34;5249542;28;20037;-65
2022/10/29 00:35:06;;;;;;;16.63;10.02;;;;;;;13.60;100.00;101947.97;5250395;28;20052;-65
2022/10/29 00:37:39;;;;;;;15.52;10.48;;;;;;;13.56;100.00;101941.13;5245314;28;20460;-65
2022/10/29 00:40:11;;;;;;;18.45;10.85;;;;;;;13.58;100.00;101949.06;5245481;28;20029;-65
2022/10/29 00:42:42;;;;;;;17.40;11.07;;;;;;;13.57;100.00;101955.38;5247971;28;20035;-65
2022/10/29 00:45:19;;;;;;;20.25;11.13;;;;;;;13.55;100.00;101943.91;5254782;28;20090;-65
2022/10/29 00:47:52;;;;;;;18.83;10.57;;;;;;;13.52;100.00;101961.09;5251222;28;20021;-65
2022/10/29 00:50:23;;;;;;;17.05;10.95;;;;;;;13.57;100.00;101966.94;5246896;28;20225;-65
2022/10/29 00:52:55;;;;;;;17.10;10.88;;;;;;;13.58;100.00;101963.31;5256816;28;20132;-65
2022/10/29 00:55:27;;;;;;;21.60;11.23;;;;;;;13.55;100.00;101968.88;5254299;28;20486;-65
2022/10/29 00:57:59;;;;;;;15.98;10.30;;;;;;;13.60;100.00;101956.03;5257201;28;20122;-65
2022/10/29 01:00:31;;;;;;;17.10;10.10;;;;;;;13.55;100.00;101954.63;5254605;28;20036;-66
2022/10/29 01:03:02;;;;;;;17.77;10.38;;;;;;;13.49;100.00;101954.09;5256299;28;20024;-65
2022/10/29 01:05:35;;;;;;;15.35;9.73;;;;;;;13.48;100.00;101956.88;5254569;28;20020;-65
2022/10/29 01:08:06;;;;;;;17.67;9.75;;;;;;;13.59;100.00;101950.75;5253991;28;20043;-65
2022/10/29 01:10:58;;;;;;;19.50;10.63;;;;;;;13.39;100.00;101955.72;5247052;28;20025;-65
2022/10/29 01:13:54;;;;;;;17.25;10.90;;;;;;;13.39;100.00;101942.31;5255362;28;20615;-65
2022/10/29 01:16:49;;;;;;;20.58;10.23;;;;;;;13.33;100.00;101942.75;5252943;28;20035;-66
2022/10/29 01:19:26;;;;;;;18.83;12.07;;;;;;;13.24;100.00;101930.81;5245143;28;20071;-65
2022/10/29 01:22:24;;;;;;;18.52;10.75;;;;;;;13.29;100.00;101923.31;5246403;28;20029;-65
2022/10/29 01:25:04;;;;;;;20.70;11.05;;;;;;;13.21;100.00;101922.13;5248766;28;20486;-65
2022/10/29 01:27:46;;;;;;;22.42;11.63;;;;;;;13.17;100.00;101928.69;5245338;28;20090;-65
2022/10/29 01:30:48;;;;;;;16.08;10.75;;;;;;;13.21;100.00;101930.19;5246451;28;20356;-65
2022/10/29 01:33:42;;;;;;;17.25;11.23;;;;;;;13.20;100.00;101923.97;5242808;28;20048;-65
2022/10/29 01:36:40;;;;;;;20.15;12.05;;;;;;;13.09;100.00;101924.69;5249458;28;20071;-65
2022/10/29 01:39:34;;;;;;;19.52;10.55;;;;;;;13.10;100.00;101918.41;5231793;28;20032;-65
2022/10/29 01:42:17;;;;;;;17.70;10.53;;;;;;;13.04;100.00;101913.47;5249520;28;20044;-65
2022/10/29 01:45:15;;;;;;;16.40;10.00;;;;;;;13.08;100.00;101912.28;5242468;28;20373;-65
2022/10/29 01:47:54;;;;;;;21.55;10.30;;;;;;;12.98;100.00;101908.53;5250621;28;20119;-65
2022/10/29 01:50:26;;;;;;;17.55;10.27;;;;;;;12.93;100.00;101902.66;5249037;28;20045;-65
2022/10/29 01:52:57;;;;;;;21.50;10.48;;;;;;;12.99;100.00;101893.31;5246751;28;20039;-65
2022/10/29 01:55:34;;;;;;;22.88;11.48;;;;;;;12.93;100.00;101889.25;5255251;28;20386;-65
2022/10/29 01:58:05;;;;;;;16.60;10.88;;;;;;;12.92;100.00;101884.84;5251193;28;20025;-65
2022/10/29 02:01:14;;;;;;;19.42;11.98;;;;;;;12.88;100.00;101892.22;5250014;28;20383;-65
2022/10/29 02:04:10;;;;;;;16.88;10.65;;;;;;;12.88;100.00;101891.38;5247586;28;20033;-65
2022/10/29 02:06:49;;;;;;;16.33;11.00;;;;;;;12.91;100.00;101891.19;5251365;28;20024;-65
2022/10/29 02:09:38;;;;;;;20.92;10.65;;;;;;;12.80;100.00;101889.25;5247302;28;20031;-65
2022/10/29 02:12:24;;;;;;;18.45;11.73;;;;;;;12.84;100.00;101898.78;5247255;28;20040;-65
2022/10/29 02:15:06;;;;;;;17.15;10.63;;;;;;;12.86;100.00;101890.63;5248568;28;20029;-65
2022/10/29 02:17:37;;;;;;;17.25;11.15;;;;;;;12.84;100.00;101873.81;5243680;28;20031;-65
2022/10/29 02:20:11;;;;;;;16.33;10.73;;;;;;;12.91;100.00;101881.31;5242440;28;20506;-65
2022/10/29 02:22:42;;;;;;;17.53;10.90;;;;;;;12.85;100.00;101880.91;5248038;28;20037;-65
2022/10/29 02:25:13;;;;;;;17.85;11.45;;;;;;;12.81;100.00;101882.06;5247584;28;20021;-65
2022/10/29 02:27:45;;;;;;;18.70;11.40;;;;;;;12.77;100.00;101868.03;5248478;28;20487;-65
2022/10/29 02:30:16;;;;;;;22.00;11.98;;;;;;;12.72;100.00;101863.00;5244875;28;20036;-65
2022/10/29 02:32:47;;;;;;;22.17;11.80;;;;;;;12.78;100.00;101869.75;5242426;28;20106;-65
2022/10/29 02:35:19;;;;;;;21.58;11.95;;;;;;;12.71;100.00;101857.72;5242095;28;20090;-65
2022/10/29 02:37:50;;;;;;;20.88;11.80;;;;;;;12.81;100.00;101858.81;5245951;28;20029;-65
2022/10/29 02:40:21;;;;;;;19.20;10.35;;;;;;;12.83;100.00;101850.66;5245032;28;20076;-65
2022/10/29 02:42:53;;;;;;;21.15;11.32;;;;;;;12.74;100.00;101858.38;5246617;28;20391;-65
2022/10/29 02:45:24;;;;;;;17.35;11.45;;;;;;;12.71;100.00;101855.94;5246328;28;20575;-65
2022/10/29 02:47:55;;;;;;;17.58;11.60;;;;;;;12.72;100.00;101854.97;5244751;28;20063;-65
2022/10/29 02:50:27;;;;;;;18.52;10.95;;;;;;;12.75;100.00;101854.75;5250207;28;20352;-65
2022/10/29 02:52:58;;;;;;;19.92;11.18;;;;;;;12.66;100.00;101850.03;5245014;28;20029;-66
2022/10/29 02:55:29;;;;;;;18.45;11.50;;;;;;;12.83;100.00;101850.66;5245641;28;20060;-65
2022/10/29 02:58:00;;;;;;;17.05;10.98;;;;;;;12.64;100.00;101849.28;5244931;28;20024;-65
2022/10/29 03:00:32;;;;;;;18.63;10.68;;;;;;;12.70;100.00;101850.69;5251768;28;20028;-65
2022/10/29 03:03:03;;;;;;;14.07;10.00;;;;;;;12.69;100.00;101848.94;5248597;28;20125;-65
2022/10/29 03:05:36;;;;;;;18.50;11.75;;;;;;;12.61;100.00;101846.81;5245393;28;20029;-65
2022/10/29 03:08:08;;;;;;;20.70;11.45;;;;;;;12.63;100.00;101839.53;5242540;28;20040;-65
2022/10/29 03:10:39;;;;;;;15.93;10.93;;;;;;;12.53;100.00;101833.94;5241879;28;20408;-65
2022/10/29 03:13:10;;;;;;;18.10;11.50;;;;;;;12.51;100.00;101835.03;5245362;28;20051;-65
2022/10/29 03:15:44;;;;;;;16.90;11.00;;;;;;;12.51;100.00;101835.03;5246259;28;20044;-65
2022/10/29 03:18:15;;;;;;;19.15;11.55;;;;;;;12.56;100.00;101835.59;5242829;28;20084;-65
2022/10/29 03:20:46;;;;;;;24.50;12.73;;;;;;;12.60;100.00;101828.16;5240773;28;20033;-65
2022/10/29 03:23:18;;;;;;;17.00;11.15;;;;;;;12.51;100.00;101827.00;5247191;28;20033;-65
2022/10/29 03:25:53;;;;;;;17.27;10.70;;;;;;;12.45;100.00;101832.78;5243578;28;20459;-65
2022/10/29 03:28:26;;;;;;;17.67;10.52;;;;;;;12.44;100.00;101826.53;5243692;28;20052;-65
2022/10/29 03:30:58;;;;;;;17.53;10.67;;;;;;;12.52;100.00;101826.03;5248916;28;20039;-65
2022/10/29 03:33:29;;;;;;;18.17;11.07;;;;;;;12.46;100.00;101819.25;5246416;28;20033;-65
2022/10/29 03:36:06;;;;;;;19.33;10.65;;;;;;;12.46;100.00;101821.09;5247316;28;20064;-65
2022/10/29 03:38:37;;;;;;;17.13;10.85;;;;;;;12.54;100.00;101821.41;5245642;28;20033;-65
2022/10/29 03:41:09;;;;;;;21.38;11.05;;;;;;;12.60;100.00;101817.44;5245969;28;20510;-65
2022/10/29 03:43:40;;;;;;;17.20;10.98;;;;;;;12.49;100.00;101807.50;5241734;28;20159;-65
2022/10/29 03:46:12;;;;;;;19.38;12.13;;;;;;;12.51;100.00;101803.75;5250061;28;20100;-65
2022/10/29 03:48:43;;;;;;;19.48;11.50;;;;;;;12.51;100.00;101808.25;5253381;28;20051;-65
2022/10/29 03:51:14;;;;;;;19.08;11.70;;;;;;;12.61;100.00;101811.16;5246001;28;20045;-65
2022/10/29 03:53:46;;;;;;;18.40;11.65;;;;;;;12.58;100.00;101814.03;5250442;28;20025;-65
2022/10/29 03:56:17;;;;;;;18.63;11.48;;;;;;;12.61;100.00;101805.81;5253018;28;20088;-65
2022/10/29 03:58:48;;;;;;;17.65;10.80;;;;;;;12.63;100.00;101794.00;5253228;28;20483;-65
2022/10/29 04:01:19;;;;;;;15.68;11.02;;;;;;;12.65;100.00;101788.56;5252882;28;20062;-65
2022/10/29 04:03:51;;;;;;;21.48;12.55;;;;;;;12.51;100.00;101782.34;5257075;28;20064;-65
2022/10/29 04:06:22;;;;;;;21.63;12.23;;;;;;;12.49;100.00;101784.28;5257916;28;20032;-65
2022/10/29 04:08:53;;;;;;;18.63;11.85;;;;;;;12.49;100.00;101778.06;5255886;28;20037;-65
2022/10/29 04:11:25;;;;;;;23.48;11.68;;;;;;;12.50;100.00;101779.75;5254980;28;20041;-65
2022/10/29 04:13:56;;;;;;;20.08;10.73;;;;;;;12.50;100.00;101786.00;5256624;28;20120;-65
2022/10/29 04:16:27;;;;;;;17.88;11.30;;;;;;;12.50;100.00;101774.41;5245370;28;20033;-65
2022/10/29 04:18:59;;;;;;;19.70;11.20;;;;;;;12.51;100.00;101782.34;5250076;28;20068;-65
2022/10/29 04:21:30;;;;;;;20.92;12.13;;;;;;;12.52;100.00;101768.00;5243499;28;20029;-65
2022/10/29 04:24:01;;;;;;;24.23;11.27;;;;;;;12.52;100.00;101761.78;5247036;28;20746;-65
2022/10/29 04:26:33;;;;;;;17.85;11.73;;;;;;;12.54;100.00;101765.19;5247784;28;20029;-65
2022/10/29 04:29:04;;;;;;;19.55;11.00;;;;;;;12.59;100.00;101768.41;5248761;28;20394;-65
2022/10/29 04:31:36;;;;;;;20.45;12.23;;;;;;;12.51;100.00;101757.41;5250688;28;20545;-65
2022/10/29 04:34:07;;;;;;;18.80;12.20;;;;;;;12.51;100.00;101762.75;5248820;28;20112;-65
2022/10/29 04:36:39;;;;;;;20.20;11.93;;;;;;;12.60;100.00;101754.09;5251037;28;20035;-65
2022/10/29 04:39:10;;;;;;;19.60;11.35;;;;;;;12.57;100.00;101748.09;5251152;28;20032;-65
2022/10/29 04:41:41;;;;;;;17.23;11.45;;;;;;;12.58;100.00;101749.78;5249964;28;20359;-65
2022/10/29 04:44:12;;;;;;;22.50;13.02;;;;;;;12.51;100.00;101760.06;5254696;28;20033;-65
2022/10/29 04:46:44;;;;;;;21.42;13.05;;;;;;;12.59;100.00;101757.72;5247286;28;20052;-65
2022/10/29 04:49:15;;;;;;;25.10;13.38;;;;;;;12.51;100.00;101763.59;5250884;28;20036;-65
2022/10/29 04:51:46;;;;;;;22.10;13.07;;;;;;;12.48;100.00;101763.84;5248258;28;20570;-65
2022/10/29 04:54:17;;;;;;;21.98;12.88;;;;;;;12.49;100.00;101765.53;5250962;28;20597;-65
2022/10/29 04:56:49;;;;;;;22.90;13.02;;;;;;;12.55;100.00;101761.56;5252565;28;20025;-65
2022/10/29 04:59:20;;;;;;;24.38;13.07;;;;;;;12.50;100.00;101763.69;5255871;28;20064;-65
2022/10/29 05:01:51;;;;;;;19.58;12.98;;;;;;;12.56;100.00;101757.94;5247141;28;20024;-65
2022/10/29 05:04:22;;;;;;;20.50;13.15;;;;;;;12.50;100.00;101750.31;5248369;28;20039;-66
2022/10/29 05:06:54;;;;;;;23.05;13.90;;;;;;;12.58;100.00;101760.47;5245945;28;20032;-65
2022/10/29 05:09:25;;;;;;;24.15;13.85;;;;;;;12.49;100.00;101745.94;5249019;28;20072;-65
2022/10/29 05:11:56;;;;;;;20.65;12.95;;;;;;;12.57;100.00;101753.44;5244348;28;20042;-65
2022/10/29 05:14:28;;;;;;;20.70;12.57;;;;;;;12.60;100.00;101750.53;5248346;28;20028;-65
2022/10/29 05:16:59;;;;;;;21.48;13.45;;;;;;;12.46;100.00;101752.34;5247542;28;20063;-65
2022/10/29 05:19:30;;;;;;;21.20;13.40;;;;;;;12.54;100.00;101743.78;5251187;28;20032;-65
2022/10/29 05:22:02;;;;;;;21.52;13.35;;;;;;;12.45;100.00;101739.94;5244464;28;20032;-65
2022/10/29 05:24:33;;;;;;;26.63;13.73;;;;;;;12.45;100.00;101737.28;5247682;28;20029;-65
2022/10/29 05:27:06;;;;;;;19.00;13.32;;;;;;;12.45;100.00;101750.66;5246555;28;20810;-65
2022/10/29 05:29:37;;;;;;;22.42;13.73;;;;;;;12.45;100.00;101739.09;5249702;28;20336;-65
2022/10/29 05:32:08;;;;;;;21.63;13.30;;;;;;;12.56;100.00;101736.53;5246183;28;20112;-65
2022/10/29 05:34:39;;;;;;;20.55;13.65;;;;;;;12.47;100.00;101727.31;5244861;28;20044;-65
2022/10/29 05:37:11;;;;;;;24.95;13.40;;;;;;;12.50;100.00;101728.91;5244760;28;20884;-65
2022/10/29 05:39:42;;;;;;;25.00;14.35;;;;;;;12.59;100.00;101725.59;5245141;28;20043;-65
2022/10/29 05:42:13;;;;;;;20.15;13.68;;;;;;;12.61;100.00;101729.00;5244208;28;20024;-66
2022/10/29 05:44:44;;;;;;;22.90;13.45;;;;;;;12.58;100.00;101729.25;5246245;28;20127;-65
2022/10/29 05:47:16;;;;;;;23.55;13.80;;;;;;;12.59;100.00;101722.06;5244953;28;20029;-65
2022/10/29 05:49:47;;;;;;;24.83;13.88;;;;;;;12.71;100.00;101715.81;5246605;28;20514;-65
2022/10/29 05:52:18;;;;;;;19.83;12.65;;;;;;;12.64;100.00;101715.41;5247030;28;20558;-65
2022/10/29 05:54:49;;;;;;;21.95;13.73;;;;;;;12.63;100.00;101708.34;5248724;28;20453;-65
2022/10/29 05:57:21;;;;;;;20.30;12.43;;;;;;;12.62;100.00;101712.00;5245143;28;20128;-65
2022/10/29 05:59:52;;;;;;;21.13;13.15;;;;;;;12.61;100.00;101718.28;5248806;28;20029;-65
2022/10/29 06:02:23;;;;;;;22.23;14.32;;;;;;;12.56;100.00;101709.75;5245222;28;20028;-65
2022/10/29 06:04:54;;;;;;;25.00;14.68;;;;;;;12.74;100.00;101705.75;5247913;28;20032;-65
2022/10/29 06:07:26;;;;;;;27.05;15.02;;;;;;;12.74;100.00;101713.78;5246307;28;20152;-65
2022/10/29 06:09:57;;;;;;;22.50;14.10;;;;;;;12.71;100.00;101714.03;5248217;28;20060;-65
2022/10/29 06:12:31;;;;;;;24.70;14.55;;;;;;;12.65;100.00;101717.09;5247291;28;20028;-65
2022/10/29 06:15:03;;;;;;;25.42;14.50;;;;;;;12.73;100.00;101722.78;5246118;28;20029;-65
2022/10/29 06:17:39;;;;;;;27.45;15.02;;;;;;;12.78;100.00;101737.66;5243286;28;20090;-65
2022/10/29 06:20:13;;;;;;;25.75;15.00;;;;;;;12.84;100.00;101742.59;5245024;28;20116;-65
2022/10/29 06:22:44;;;;;;;;;;;;;;;12.86;100.00;101729.94;5245783;28;20390;-65
2022/10/29 06:25:16;;;;;;;22.60;14.50;;;;;;;12.90;100.00;101739.44;5246540;28;19920;-66
2022/10/29 06:27:47;;;;;;;25.08;15.63;;;;;;;12.89;100.00;101740.44;5245710;28;20040;-65
2022/10/29 06:30:18;;;;;;;20.65;14.02;;;;;;;12.90;100.00;101742.97;5247319;28;20029;-65
2022/10/29 06:32:49;;;;;;;25.15;15.93;;;;;;;12.98;100.00;101736.22;5243836;28;20025;-65
2022/10/29 06:35:21;;;;;;;25.27;14.73;;;;;;;12.87;100.00;101728.97;5247051;28;20116;-65
2022/10/29 06:37:52;;;;;;;22.08;14.45;;;;;;;13.07;100.00;101739.09;5242157;28;20047;-65
2022/10/29 06:40:24;;;;;;;21.63;13.93;;;;;;;12.89;100.00;101737.75;5243454;28;20762;-65
2022/10/29 06:43:00;;;;;;;22.25;14.20;;;;;;;12.92;100.00;101734.84;5247390;28;21147;-65
2022/10/29 06:45:32;;;;;;;21.42;13.55;;;;;;;12.95;100.00;101742.66;5241834;28;20024;-64
2022/10/29 06:48:04;;;;;;;23.23;13.63;;;;;;;12.82;100.00;101739.16;5245482;28;20029;-65
2022/10/29 06:50:35;;;;;;;24.00;13.30;;;;;;;12.80;100.00;101733.91;5245091;28;20106;-65
2022/10/29 06:53:10;;;;;;;21.30;14.10;;;;;;;12.92;100.00;101748.22;5245072;28;20483;-66
2022/10/29 06:55:42;;;;;;;23.45;14.50;;;;;;;12.97;100.00;101742.56;5242325;28;20735;-65
2022/10/29 06:58:15;;;;;;;27.85;15.57;;;;;;;12.88;100.00;101749.44;5245893;28;20028;-65
2022/10/29 07:00:47;;;;;;;23.17;14.43;;;;;;;12.91;100.00;101747.38;5248894;28;20041;-65
2022/10/29 07:03:20;;;;;;;21.77;14.55;;;;;;;12.87;100.00;101753.09;5245093;28;20036;-65
2022/10/29 07:05:55;;;;;;;19.95;14.52;;;;;;;12.97;100.00;101750.59;5245025;28;20039;-65
2022/10/29 07:08:27;;;;;;;25.92;14.93;;;;;;;13.16;100.00;101750.13;5245259;28;20103;-65
2022/10/29 07:11:01;;;;;;;23.45;16.25;;;;;;;13.18;100.00;101734.78;5247259;28;20028;-65
2022/10/29 07:13:32;;;;;;;26.95;16.15;;;;;;;13.17;100.00;101735.75;5243448;28;20025;-65
2022/10/29 07:16:04;;;;;;;25.55;14.80;;;;;;;13.11;100.00;101737.88;5244640;28;20034;-65
2022/10/29 07:18:35;;;;;;;23.80;14.02;;;;;;;13.09;100.00;101730.94;5249951;28;20025;-65
2022/10/29 07:21:08;;;;;;;26.40;16.15;;;;;;;13.20;100.00;101719.44;5252092;28;20111;-64
2022/10/29 07:23:39;;;;;;;25.70;15.68;;;;;;;13.12;100.00;101720.84;5230132;28;20021;-65
2022/10/29 07:26:11;;;;;;;25.85;15.93;;;;;;;13.12;100.00;101709.28;5248560;28;20033;-65
2022/10/29 07:28:42;;;;;;;23.73;15.88;;;;;;;13.18;100.00;101710.66;5251356;28;20048;-65
2022/10/29 07:31:13;;;;;;;26.88;14.80;;;;;;;13.13;100.00;101711.88;5252171;28;20376;-65
2022/10/29 07:33:44;;;;;;;24.52;15.60;;;;;;;13.15;100.00;101711.72;5252120;28;20025;-65
2022/10/29 07:36:16;;;;;;;23.08;14.10;;;;;;;13.26;100.00;101708.28;5257024;28;20086;-65
2022/10/29 07:38:47;;;;;;;22.75;14.80;;;;;;;13.24;100.00;101707.53;5252994;28;20040;-65
2022/10/29 07:41:18;;;;;;;21.42;14.70;;;;;;;13.21;100.00;101705.06;5230681;28;20025;-65
2022/10/29 07:43:49;;;;;;;22.23;14.95;;;;;;;13.25;100.00;101707.41;5254787;28;20032;-64
2022/10/29 07:46:21;;;;;;;20.88;13.45;;;;;;;13.19;100.00;101709.69;5254290;28;20021;-65
2022/10/29 07:48:52;;;;;;;21.27;14.43;;;;;;;13.24;100.00;101707.53;5252752;28;20037;-65
2022/10/29 07:51:23;;;;;;;21.27;14.15;;;;;;;13.30;100.00;101707.09;5257681;28;20145;-65
2022/10/29 07:53:55;;;;;;;22.63;14.35;;;;;;;13.19;100.00;101709.69;5251549;28;20028;-65
2022/10/29 07:56:26;;;;;;;22.20;13.00;;;;;;;13.21;100.00;101711.31;5246450;28;20037;-65
2022/10/29 07:58:57;;;;;;;22.67;13.10;;;;;;;13.22;100.00;101718.34;5249567;28;20041;-65
2022/10/29 08:01:28;;;;;;;25.98;15.20;;;;;;;13.52;100.00;101715.25;5252718;28;20119;-66
2022/10/29 08:04:00;;;;;;;24.92;15.02;;;;;;;13.44;100.00;101709.63;5252779;28;20059;-65
2022/10/29 08:06:31;;;;;;;27.00;16.38;;;;;;;13.60;100.00;101705.78;5253013;28;20021;-65
2022/10/29 08:09:02;;;;;;;27.50;15.52;;;;;;;13.63;100.00;101713.59;5256237;28;20384;-65
2022/10/29 08:11:34;;;;;;;26.63;16.42;;;;;;;13.66;100.00;101698.13;5253416;28;20554;-65
2022/10/29 08:14:05;;;;;;;30.98;16.65;;;;;;;13.72;100.00;101704.84;5249890;28;20025;-66
2022/10/29 08:16:36;;;;;;;32.75;16.90;;;;;;;13.84;100.00;101708.41;5251064;28;20025;-65
2022/10/29 08:19:08;;;;;;;24.60;17.33;;;;;;;13.88;100.00;101700.03;5250869;28;20159;-65
2022/10/29 08:21:39;;;;;;;31.52;16.92;;;;;;;13.99;100.00;101701.03;5251941;28;20032;-65
2022/10/29 08:24:10;;;;;;;29.10;16.85;;;;;;;14.03;100.00;101687.22;5247276;28;20032;-65
2022/10/29 08:26:42;;;;;;;23.05;15.07;;;;;;;14.01;100.00;101697.22;5255014;28;20028;-65
2022/10/29 08:29:13;;;;;;;27.35;15.85;;;;;;;14.12;100.00;101696.41;5253600;28;20215;-65
2022/10/29 08:31:44;;;;;;;25.30;15.48;;;;;;;14.13;100.00;101692.75;5253200;28;20086;-65
2022/10/29 08:34:15;;;;;;;30.23;15.70;;;;;;;14.23;100.00;101688.38;5253805;28;20025;-65
2022/10/29 08:36:47;;;;;;;25.00;15.20;;;;;;;14.26;100.00;101689.94;5251854;28;20406;-65
2022/10/29 08:39:18;;;;;;;30.55;15.93;;;;;;;14.36;100.00;101695.44;5252981;28;20024;-65
2022/10/29 08:42:15;;;;;;;29.25;16.30;;;;;;;14.48;100.00;101708.78;5255056;28;20426;-65
2022/10/29 08:45:00;;;;;;;27.17;14.70;;;;;;;14.50;100.00;101697.91;5254406;28;20244;-65
2022/10/29 08:47:51;;;;;;;27.30;15.63;;;;;;;14.69;100.00;101700.00;5253505;28;20698;-65
2022/10/29 08:50:32;;;;;;;24.20;13.80;;;;;;;14.85;100.00;101699.63;5251136;28;20135;-65
2022/10/29 08:53:03;;;;;;;26.70;14.90;;;;;;;14.95;100.00;101694.34;5255115;28;20028;-66
2022/10/29 08:55:36;;;;;;;21.60;13.13;;;;;;;14.95;100.00;101694.34;5253983;28;20029;-65
2022/10/29 08:58:29;;;;;;;26.02;13.50;;;;;;;15.04;100.00;101688.22;5249335;28;20044;-65
2022/10/29 09:01:01;;;;;;;21.80;12.63;;;;;;;15.07;100.00;101680.78;5250532;28;20273;-65
2022/10/29 09:03:32;;;;;;;21.30;12.43;;;;;;;15.07;100.00;101686.16;5252173;28;20090;-66
2022/10/29 09:06:47;;;;;;;19.25;11.73;;;;;;;15.12;100.00;101683.06;5247792;28;20040;-65
2022/10/29 09:09:36;;;;;;;22.37;11.60;;;;;;;15.18;100.00;101687.09;5248874;28;20029;-66
2022/10/29 09:12:39;;;;;;;19.85;11.27;;;;;;;15.34;100.00;101679.47;5252188;28;20489;-65
2022/10/29 09:15:17;;;;;;;18.50;11.52;;;;;;;15.52;100.00;101678.91;5247185;28;20028;-65
2022/10/29 09:17:57;;;;;;;19.52;11.02;;;;;;;15.55;100.00;101682.19;5249476;28;20025;-66
2022/10/29 09:20:40;;;;;;;15.20;9.18;;;;;;;15.55;100.00;101684.88;5245518;28;20029;-66
2022/10/29 09:23:49;;;;;;;19.50;9.70;;;;;;;15.71;100.00;101688.97;5242915;28;20027;-65
2022/10/29 09:26:28;;;;;;;15.95;8.93;;;;;;;15.81;100.00;101688.06;5249218;28;20040;-66
2022/10/29 09:29:21;;;;;;;17.60;8.77;;;;;;;15.82;100.00;101684.41;5251701;28;20035;-67
2022/10/29 09:31:58;;;;;;;16.80;8.70;;;;;;;15.90;100.00;101662.22;5248693;28;20037;-65
2022/10/29 09:35:01;;;;;;;14.05;7.75;;;;;;;15.90;100.00;101674.81;5233110;28;20040;-66
2022/10/29 09:37:47;;;;;;;15.77;8.30;;;;;;;15.95;100.00;101667.19;5240421;28;20075;-66
2022/10/29 09:40:33;;;;;;;13.85;7.30;;;;;;;15.92;100.00;101662.09;5248512;28;20460;-65
2022/10/29 09:43:14;;;;;;;17.80;7.70;;;;;;;16.07;100.00;101677.75;5233584;28;20128;-66
2022/10/29 09:45:54;;;;;;;16.42;7.50;;;;;;;16.09;100.00;101661.47;5250834;28;20024;-66
2022/10/29 09:49:23;;;;;;;15.57;7.65;;;;;;;16.12;100.00;101661.19;5246369;28;20078;-66
2022/10/29 09:52:18;;;;;;;14.38;7.05;;;;;;;16.14;100.00;101651.16;5185003;28;20521;-66
2022/10/29 09:54:51;;;;;;;15.38;7.28;;;;;;;16.26;100.00;101654.59;5241609;28;20399;-65
2022/10/29 09:57:29;;;;;;;14.32;7.15;;;;;;;16.39;100.00;101643.59;5250855;28;20090;-65
2022/10/29 10:00:12;;;;;;;14.40;7.20;;;;;;;16.48;100.00;101641.94;5244450;28;20064;-66
2022/10/29 10:02:50;;;;;;;12.20;6.25;;;;;;;16.56;100.00;101650.19;5250719;28;20355;-66
2022/10/29 10:05:33;;;;;;;12.95;6.32;;;;;;;16.73;100.00;101648.69;5247123;28;20095;-66
2022/10/29 10:08:11;;;;;;;14.70;5.95;;;;;;;16.84;100.00;101641.38;5248956;28;20557;-66
2022/10/29 10:11:00;;;;;;;10.10;5.85;;;;;;;16.91;100.00;101638.94;5250446;28;20033;-66
2022/10/29 10:13:51;;;;;;;15.10;6.15;;;;;;;16.99;100.00;101646.34;5253336;28;20043;-66
2022/10/29 10:16:25;;;;;;;13.65;5.63;;;;;;;17.03;100.00;101639.72;5240315;28;20123;-66
2022/10/29 10:18:56;;;;;;;;;;;;;;;16.94;100.00;101636.00;5251610;28;20033;-66
2022/10/29 10:21:31;;;;;;;18.40;5.80;;;;;;;16.88;100.00;101641.09;5248802;28;19917;-66
2022/10/29 10:24:27;;;;;;;15.32;6.00;;;;;;;16.95;100.00;101636.84;5250165;28;20327;-66
2022/10/29 10:26:59;;;;;;;13.45;5.53;;;;;;;17.03;100.00;101639.72;5242662;28;20040;-66
2022/10/29 10:29:30;;;;;;;12.25;6.07;;;;;;;17.01;100.00;101639.00;5245258;28;20035;-66
2022/10/29 10:32:02;;;;;;;16.25;6.03;;;;;;;17.09;100.00;101633.75;5249410;28;20035;-66
2022/10/29 10:34:33;;;;;;;14.85;6.15;;;;;;;17.03;100.00;101635.16;5255439;28;20430;-66
2022/10/29 10:37:09;;;;;;;14.40;5.75;;;;;;;17.13;100.00;101632.47;5250960;28;20029;-66
2022/10/29 10:39:47;;;;;;;12.68;5.18;;;;;;;17.18;100.00;101638.28;5250734;28;20035;-66
2022/10/29 10:42:31;;;;;;;13.38;5.13;;;;;;;17.38;100.00;101628.34;5244039;28;20067;-66
2022/10/29 10:45:11;;;;;;;15.70;5.50;;;;;;;17.37;100.00;101631.19;5246921;28;20380;-66
2022/10/29 10:47:46;;;;;;;14.27;5.60;;;;;;;17.42;100.00;101626.22;5240171;28;21967;-66
2022/10/29 10:50:29;;;;;;;10.63;4.78;;;;;;;17.42;100.00;101616.28;5246210;28;20049;-66
2022/10/29 10:53:13;;;;;;;12.95;5.30;;;;;;;17.55;100.00;101618.69;5253046;28;20495;-66
2022/10/29 10:55:51;;;;;;;13.55;5.32;;;;;;;17.86;100.00;101609.56;5243987;28;20041;-66
2022/10/29 10:58:30;;;;;;;10.05;5.00;;;;;;;17.90;100.00;101610.97;5236708;28;20483;-66
2022/10/29 11:01:12;;;;;;;16.02;5.40;;;;;;;17.72;100.00;101610.81;5251058;28;20033;-66
2022/10/29 11:03:53;;;;;;;11.65;4.65;;;;;;;17.79;100.00;101611.94;5260138;28;20096;-66
2022/10/29 11:06:30;;;;;;;11.40;5.28;;;;;;;17.85;100.00;101608.69;5249196;28;20094;-67
2022/10/29 11:09:07;;;;;;;13.95;4.88;;;;;;;17.85;100.00;101610.53;5252813;28;20111;-66
2022/10/29 11:11:44;;;;;;;13.02;4.60;;;;;;;18.10;100.00;101615.31;5246056;28;20103;-66
2022/10/29 11:14:29;;;;;;;16.92;4.60;;;;;;;18.06;100.00;101616.59;5253286;28;20111;-66
2022/10/29 11:17:03;;;;;;;14.05;4.47;;;;;;;18.34;100.00;101612.06;5247651;28;20037;-66
2022/10/29 11:19:43;;;;;;;11.98;4.50;;;;;;;18.14;100.00;101616.72;5252731;28;20051;-66
2022/10/29 11:22:24;;;;;;;13.23;5.20;;;;;;;18.31;100.00;101606.94;5247429;28;20025;-66
2022/10/29 11:25:12;;;;;;;12.07;4.65;;;;;;;18.55;100.00;101603.72;5250663;28;20195;-67
2022/10/29 11:27:57;;;;;;;10.10;4.38;;;;;;;18.59;100.00;101599.69;5248632;28;20503;-66
2022/10/29 11:30:37;;;;;;;10.55;4.68;;;;;;;18.60;100.00;101606.81;5252808;28;20498;-66
2022/10/29 11:33:26;;;;;;;9.27;4.03;;;;;;;18.87;100.00;101598.84;5241175;28;20087;-66
2022/10/29 11:36:17;;;;;;;16.42;4.82;;;;;;;18.77;100.00;101591.63;5250989;28;20039;-66
2022/10/29 11:39:01;;;;;;;11.93;3.97;;;;;;;18.84;100.00;101600.00;5246517;28;20032;-66
2022/10/29 11:41:57;;;;;;;12.23;4.80;;;;;;;19.06;100.00;101585.19;5244788;28;20032;-66
2022/10/29 11:44:35;;;;;;;14.38;5.18;;;;;;;19.22;100.00;101579.06;5245930;28;20033;-66